sensor_id;sensor_type;location;lat;lon;timestamp;P1;durP1;ratioP1;P2;durP2;ratioP2
21233;SDS011;10774;42.178;26.578;2023-07-08T00:00:14;13.32;;;6.13;;
21233;SDS011;10774;42.178;26.578;2023-07-08T00:02:41;10.60;;;5.82;;
21233;SDS011;10774;42.178;26.578;2023-07-08T00:05:11;15.55;;;6.30;;
21233;SDS011;10774;42.178;26.578;2023-07-08T00:07:38;8.07;;;5.70;;
21233;SDS011;10774;42.178;26.578;2023-07-08T00:10:10;14.55;;;7.38;;
21233;SDS011;10774;42.178;26.578;2023-07-08T00:12:38;14.75;;;6.72;;
21233;SDS011;10774;42.178;26.578;2023-07-08T00:15:04;12.93;;;6.10;;
21233;SDS011;10774;42.178;26.578;2023-07-08T00:17:30;13.27;;;6.43;;
21233;SDS011;10774;42.178;26.578;2023-07-08T00:19:55;15.13;;;6.05;;
21233;SDS011;10774;42.178;26.578;2023-07-08T00:22:20;7.18;;;6.07;;
21233;SDS011;10774;42.178;26.578;2023-07-08T00:24:47;12.45;;;6.53;;
21233;SDS011;10774;42.178;26.578;2023-07-08T00:27:13;15.20;;;6.65;;
21233;SDS011;10774;42.178;26.578;2023-07-08T00:29:38;11.63;;;7.20;;
21233;SDS011;10774;42.178;26.578;2023-07-08T00:32:11;11.25;;;6.80;;
21233;SDS011;10774;42.178;26.578;2023-07-08T00:34:38;13.80;;;6.60;;
21233;SDS011;10774;42.178;26.578;2023-07-08T00:37:04;9.40;;;6.18;;
21233;SDS011;10774;42.178;26.578;2023-07-08T00:39:30;10.65;;;6.90;;
21233;SDS011;10774;42.178;26.578;2023-07-08T00:41:56;11.55;;;7.18;;
21233;SDS011;10774;42.178;26.578;2023-07-08T00:44:25;12.15;;;6.63;;
21233;SDS011;10774;42.178;26.578;2023-07-08T00:49:25;12.35;;;6.93;;
21233;SDS011;10774;42.178;26.578;2023-07-08T00:52:14;11.75;;;6.47;;
21233;SDS011;10774;42.178;26.578;2023-07-08T00:54:42;13.18;;;7.03;;
21233;SDS011;10774;42.178;26.578;2023-07-08T00:57:08;8.50;;;6.80;;
21233;SDS011;10774;42.178;26.578;2023-07-08T00:59:37;10.70;;;7.38;;
21233;SDS011;10774;42.178;26.578;2023-07-08T01:02:08;8.32;;;6.93;;
21233;SDS011;10774;42.178;26.578;2023-07-08T01:07:12;8.23;;;6.13;;
21233;SDS011;10774;42.178;26.578;2023-07-08T01:09:40;8.93;;;6.80;;
21233;SDS011;10774;42.178;26.578;2023-07-08T01:12:09;12.70;;;6.80;;
21233;SDS011;10774;42.178;26.578;2023-07-08T01:14:39;12.15;;;6.55;;
21233;SDS011;10774;42.178;26.578;2023-07-08T01:17:07;9.80;;;6.28;;
21233;SDS011;10774;42.178;26.578;2023-07-08T01:19:38;8.48;;;5.75;;
21233;SDS011;10774;42.178;26.578;2023-07-08T01:22:08;12.02;;;6.72;;
21233;SDS011;10774;42.178;26.578;2023-07-08T01:24:35;9.13;;;6.53;;
21233;SDS011;10774;42.178;26.578;2023-07-08T01:27:04;9.18;;;5.88;;
21233;SDS011;10774;42.178;26.578;2023-07-08T01:29:32;9.00;;;6.40;;
21233;SDS011;10774;42.178;26.578;2023-07-08T01:31:57;9.10;;;6.15;;
21233;SDS011;10774;42.178;26.578;2023-07-08T01:34:27;9.32;;;6.90;;
21233;SDS011;10774;42.178;26.578;2023-07-08T01:36:57;11.75;;;6.70;;
21233;SDS011;10774;42.178;26.578;2023-07-08T01:39:25;11.95;;;7.15;;
21233;SDS011;10774;42.178;26.578;2023-07-08T01:41:52;9.93;;;6.93;;
21233;SDS011;10774;42.178;26.578;2023-07-08T01:44:23;9.93;;;6.50;;
21233;SDS011;10774;42.178;26.578;2023-07-08T01:46:52;12.50;;;6.93;;
21233;SDS011;10774;42.178;26.578;2023-07-08T01:49:20;7.25;;;6.47;;
21233;SDS011;10774;42.178;26.578;2023-07-08T01:51:46;11.60;;;6.50;;
21233;SDS011;10774;42.178;26.578;2023-07-08T01:54:13;12.27;;;6.35;;
21233;SDS011;10774;42.178;26.578;2023-07-08T01:56:39;12.52;;;6.35;;
21233;SDS011;10774;42.178;26.578;2023-07-08T01:59:04;8.63;;;6.30;;
21233;SDS011;10774;42.178;26.578;2023-07-08T02:01:29;12.13;;;6.50;;
21233;SDS011;10774;42.178;26.578;2023-07-08T02:03:55;10.82;;;6.75;;
21233;SDS011;10774;42.178;26.578;2023-07-08T02:06:20;11.05;;;7.03;;
21233;SDS011;10774;42.178;26.578;2023-07-08T02:08:45;14.35;;;6.65;;
21233;SDS011;10774;42.178;26.578;2023-07-08T02:11:11;14.13;;;7.00;;
21233;SDS011;10774;42.178;26.578;2023-07-08T02:13:36;11.27;;;6.60;;
21233;SDS011;10774;42.178;26.578;2023-07-08T02:16:02;11.65;;;7.20;;
21233;SDS011;10774;42.178;26.578;2023-07-08T02:18:27;10.40;;;6.80;;
21233;SDS011;10774;42.178;26.578;2023-07-08T02:20:57;16.27;;;7.07;;
21233;SDS011;10774;42.178;26.578;2023-07-08T02:23:24;9.70;;;6.15;;
21233;SDS011;10774;42.178;26.578;2023-07-08T02:25:51;10.40;;;6.50;;
21233;SDS011;10774;42.178;26.578;2023-07-08T02:28:17;14.05;;;7.22;;
21233;SDS011;10774;42.178;26.578;2023-07-08T02:30:43;11.13;;;6.50;;
21233;SDS011;10774;42.178;26.578;2023-07-08T02:33:11;10.63;;;7.15;;
21233;SDS011;10774;42.178;26.578;2023-07-08T02:35:36;8.38;;;6.40;;
21233;SDS011;10774;42.178;26.578;2023-07-08T02:38:01;12.60;;;7.45;;
21233;SDS011;10774;42.178;26.578;2023-07-08T02:40:28;10.02;;;6.60;;
21233;SDS011;10774;42.178;26.578;2023-07-08T02:42:54;10.63;;;7.07;;
21233;SDS011;10774;42.178;26.578;2023-07-08T02:45:19;14.73;;;7.93;;
21233;SDS011;10774;42.178;26.578;2023-07-08T02:47:45;10.70;;;6.50;;
21233;SDS011;10774;42.178;26.578;2023-07-08T02:50:11;15.15;;;6.97;;
21233;SDS011;10774;42.178;26.578;2023-07-08T02:52:37;7.40;;;6.55;;
21233;SDS011;10774;42.178;26.578;2023-07-08T02:55:03;12.57;;;7.03;;
21233;SDS011;10774;42.178;26.578;2023-07-08T02:57:28;9.80;;;6.68;;
21233;SDS011;10774;42.178;26.578;2023-07-08T02:59:54;14.55;;;7.07;;
21233;SDS011;10774;42.178;26.578;2023-07-08T03:02:21;11.63;;;6.72;;
21233;SDS011;10774;42.178;26.578;2023-07-08T03:04:47;12.18;;;6.90;;
21233;SDS011;10774;42.178;26.578;2023-07-08T03:07:15;9.75;;;7.10;;
21233;SDS011;10774;42.178;26.578;2023-07-08T03:09:41;10.88;;;7.13;;
21233;SDS011;10774;42.178;26.578;2023-07-08T03:12:08;12.45;;;6.90;;
21233;SDS011;10774;42.178;26.578;2023-07-08T03:14:35;12.02;;;6.75;;
21233;SDS011;10774;42.178;26.578;2023-07-08T03:17:01;17.65;;;9.10;;
21233;SDS011;10774;42.178;26.578;2023-07-08T03:19:27;14.27;;;7.28;;
21233;SDS011;10774;42.178;26.578;2023-07-08T03:21:52;15.05;;;6.60;;
21233;SDS011;10774;42.178;26.578;2023-07-08T03:24:18;12.15;;;6.70;;
21233;SDS011;10774;42.178;26.578;2023-07-08T03:26:44;11.80;;;7.10;;
21233;SDS011;10774;42.178;26.578;2023-07-08T03:29:19;11.10;;;7.30;;
21233;SDS011;10774;42.178;26.578;2023-07-08T03:31:46;11.32;;;7.30;;
21233;SDS011;10774;42.178;26.578;2023-07-08T03:34:12;14.52;;;7.10;;
21233;SDS011;10774;42.178;26.578;2023-07-08T03:36:42;11.63;;;7.80;;
21233;SDS011;10774;42.178;26.578;2023-07-08T03:39:13;11.13;;;7.88;;
21233;SDS011;10774;42.178;26.578;2023-07-08T03:41:40;15.32;;;8.13;;
21233;SDS011;10774;42.178;26.578;2023-07-08T03:44:06;10.23;;;7.85;;
21233;SDS011;10774;42.178;26.578;2023-07-08T03:46:31;14.80;;;8.45;;
21233;SDS011;10774;42.178;26.578;2023-07-08T03:48:57;11.82;;;8.18;;
21233;SDS011;10774;42.178;26.578;2023-07-08T03:51:24;10.90;;;7.60;;
21233;SDS011;10774;42.178;26.578;2023-07-08T03:53:52;11.63;;;8.07;;
21233;SDS011;10774;42.178;26.578;2023-07-08T03:56:18;12.73;;;7.78;;
21233;SDS011;10774;42.178;26.578;2023-07-08T03:58:43;12.00;;;7.72;;
21233;SDS011;10774;42.178;26.578;2023-07-08T04:01:12;13.10;;;7.88;;
21233;SDS011;10774;42.178;26.578;2023-07-08T04:03:42;15.05;;;6.75;;
21233;SDS011;10774;42.178;26.578;2023-07-08T04:06:09;12.48;;;7.22;;
21233;SDS011;10774;42.178;26.578;2023-07-08T04:08:34;14.65;;;6.50;;
21233;SDS011;10774;42.178;26.578;2023-07-08T04:11:00;13.50;;;6.57;;
21233;SDS011;10774;42.178;26.578;2023-07-08T04:13:26;11.00;;;6.50;;
21233;SDS011;10774;42.178;26.578;2023-07-08T04:15:52;12.18;;;6.85;;
21233;SDS011;10774;42.178;26.578;2023-07-08T04:18:21;13.75;;;6.68;;
21233;SDS011;10774;42.178;26.578;2023-07-08T04:20:46;11.18;;;6.68;;
21233;SDS011;10774;42.178;26.578;2023-07-08T04:23:18;8.65;;;6.53;;
21233;SDS011;10774;42.178;26.578;2023-07-08T04:25:44;11.07;;;5.95;;
21233;SDS011;10774;42.178;26.578;2023-07-08T04:28:09;16.67;;;6.78;;
21233;SDS011;10774;42.178;26.578;2023-07-08T04:30:35;11.00;;;6.38;;
21233;SDS011;10774;42.178;26.578;2023-07-08T04:33:06;15.45;;;6.70;;
21233;SDS011;10774;42.178;26.578;2023-07-08T04:35:41;11.15;;;6.28;;
21233;SDS011;10774;42.178;26.578;2023-07-08T04:40:42;18.48;;;6.60;;
21233;SDS011;10774;42.178;26.578;2023-07-08T04:43:08;14.57;;;6.50;;
21233;SDS011;10774;42.178;26.578;2023-07-08T04:45:37;12.25;;;6.95;;
21233;SDS011;10774;42.178;26.578;2023-07-08T04:48:05;11.38;;;6.53;;
21233;SDS011;10774;42.178;26.578;2023-07-08T04:50:41;13.77;;;6.72;;
21233;SDS011;10774;42.178;26.578;2023-07-08T04:53:08;10.27;;;6.18;;
21233;SDS011;10774;42.178;26.578;2023-07-08T04:55:35;17.15;;;6.38;;
21233;SDS011;10774;42.178;26.578;2023-07-08T04:58:03;19.67;;;7.00;;
21233;SDS011;10774;42.178;26.578;2023-07-08T05:00:28;9.25;;;6.35;;
21233;SDS011;10774;42.178;26.578;2023-07-08T05:02:54;13.02;;;7.63;;
21233;SDS011;10774;42.178;26.578;2023-07-08T05:05:19;12.48;;;6.88;;
21233;SDS011;10774;42.178;26.578;2023-07-08T05:07:45;11.35;;;6.60;;
21233;SDS011;10774;42.178;26.578;2023-07-08T05:10:11;12.18;;;6.85;;
21233;SDS011;10774;42.178;26.578;2023-07-08T05:12:37;16.27;;;7.68;;
21233;SDS011;10774;42.178;26.578;2023-07-08T05:15:03;11.15;;;6.95;;
21233;SDS011;10774;42.178;26.578;2023-07-08T05:17:29;12.10;;;7.15;;
21233;SDS011;10774;42.178;26.578;2023-07-08T05:19:55;14.20;;;7.15;;
21233;SDS011;10774;42.178;26.578;2023-07-08T05:22:22;11.57;;;6.30;;
21233;SDS011;10774;42.178;26.578;2023-07-08T05:24:50;16.77;;;7.70;;
21233;SDS011;10774;42.178;26.578;2023-07-08T05:27:17;15.18;;;7.57;;
21233;SDS011;10774;42.178;26.578;2023-07-08T05:29:45;13.20;;;6.95;;
21233;SDS011;10774;42.178;26.578;2023-07-08T05:32:11;13.18;;;7.47;;
21233;SDS011;10774;42.178;26.578;2023-07-08T05:34:36;10.00;;;7.15;;
21233;SDS011;10774;42.178;26.578;2023-07-08T05:37:02;11.63;;;7.47;;
21233;SDS011;10774;42.178;26.578;2023-07-08T05:39:29;12.27;;;7.90;;
21233;SDS011;10774;42.178;26.578;2023-07-08T05:41:55;12.00;;;8.05;;
21233;SDS011;10774;42.178;26.578;2023-07-08T05:44:20;12.88;;;7.70;;
21233;SDS011;10774;42.178;26.578;2023-07-08T05:46:46;14.50;;;8.52;;
21233;SDS011;10774;42.178;26.578;2023-07-08T05:49:11;15.77;;;8.45;;
21233;SDS011;10774;42.178;26.578;2023-07-08T05:51:37;12.73;;;8.63;;
21233;SDS011;10774;42.178;26.578;2023-07-08T05:54:03;12.60;;;9.63;;
21233;SDS011;10774;42.178;26.578;2023-07-08T05:56:28;12.40;;;8.75;;
21233;SDS011;10774;42.178;26.578;2023-07-08T05:58:55;16.27;;;8.43;;
21233;SDS011;10774;42.178;26.578;2023-07-08T06:01:21;14.35;;;9.73;;
21233;SDS011;10774;42.178;26.578;2023-07-08T06:03:46;13.20;;;9.70;;
21233;SDS011;10774;42.178;26.578;2023-07-08T06:06:12;10.43;;;9.32;;
21233;SDS011;10774;42.178;26.578;2023-07-08T06:08:38;12.10;;;10.00;;
21233;SDS011;10774;42.178;26.578;2023-07-08T06:11:04;15.43;;;10.35;;
21233;SDS011;10774;42.178;26.578;2023-07-08T06:13:29;15.95;;;10.35;;
21233;SDS011;10774;42.178;26.578;2023-07-08T06:15:55;13.52;;;9.70;;
21233;SDS011;10774;42.178;26.578;2023-07-08T06:18:20;14.18;;;10.27;;
21233;SDS011;10774;42.178;26.578;2023-07-08T06:20:56;12.35;;;10.70;;
21233;SDS011;10774;42.178;26.578;2023-07-08T06:23:23;15.32;;;10.52;;
21233;SDS011;10774;42.178;26.578;2023-07-08T06:25:49;13.10;;;10.70;;
21233;SDS011;10774;42.178;26.578;2023-07-08T06:28:15;15.50;;;10.52;;
21233;SDS011;10774;42.178;26.578;2023-07-08T06:30:40;13.93;;;10.23;;
21233;SDS011;10774;42.178;26.578;2023-07-08T06:33:06;15.15;;;9.85;;
21233;SDS011;10774;42.178;26.578;2023-07-08T06:35:32;17.15;;;9.93;;
21233;SDS011;10774;42.178;26.578;2023-07-08T06:37:57;14.70;;;8.88;;
21233;SDS011;10774;42.178;26.578;2023-07-08T06:40:23;19.08;;;9.48;;
21233;SDS011;10774;42.178;26.578;2023-07-08T06:42:49;18.15;;;10.02;;
21233;SDS011;10774;42.178;26.578;2023-07-08T06:45:14;13.02;;;9.80;;
21233;SDS011;10774;42.178;26.578;2023-07-08T06:47:40;14.95;;;9.63;;
21233;SDS011;10774;42.178;26.578;2023-07-08T06:50:06;14.02;;;9.63;;
21233;SDS011;10774;42.178;26.578;2023-07-08T06:52:32;13.65;;;9.23;;
21233;SDS011;10774;42.178;26.578;2023-07-08T06:55:00;14.48;;;7.75;;
21233;SDS011;10774;42.178;26.578;2023-07-08T06:57:27;12.52;;;8.77;;
21233;SDS011;10774;42.178;26.578;2023-07-08T06:59:53;9.82;;;7.10;;
21233;SDS011;10774;42.178;26.578;2023-07-08T07:02:19;9.82;;;6.57;;
21233;SDS011;10774;42.178;26.578;2023-07-08T07:04:45;12.02;;;7.03;;
21233;SDS011;10774;42.178;26.578;2023-07-08T07:07:11;12.80;;;7.60;;
21233;SDS011;10774;42.178;26.578;2023-07-08T07:09:37;8.00;;;7.07;;
21233;SDS011;10774;42.178;26.578;2023-07-08T07:12:03;10.85;;;6.50;;
21233;SDS011;10774;42.178;26.578;2023-07-08T07:14:30;7.55;;;5.47;;
21233;SDS011;10774;42.178;26.578;2023-07-08T07:16:55;6.57;;;5.30;;
21233;SDS011;10774;42.178;26.578;2023-07-08T07:19:21;7.80;;;6.45;;
21233;SDS011;10774;42.178;26.578;2023-07-08T07:21:46;8.52;;;4.88;;
21233;SDS011;10774;42.178;26.578;2023-07-08T07:24:12;5.80;;;5.20;;
21233;SDS011;10774;42.178;26.578;2023-07-08T07:26:38;10.15;;;5.45;;
21233;SDS011;10774;42.178;26.578;2023-07-08T07:29:03;5.85;;;4.80;;
21233;SDS011;10774;42.178;26.578;2023-07-08T07:31:29;8.27;;;5.20;;
21233;SDS011;10774;42.178;26.578;2023-07-08T07:33:56;5.30;;;4.47;;
21233;SDS011;10774;42.178;26.578;2023-07-08T07:36:21;7.53;;;4.47;;
21233;SDS011;10774;42.178;26.578;2023-07-08T07:38:47;13.27;;;5.32;;
21233;SDS011;10774;42.178;26.578;2023-07-08T07:41:12;5.32;;;4.82;;
21233;SDS011;10774;42.178;26.578;2023-07-08T07:43:38;6.68;;;4.68;;
21233;SDS011;10774;42.178;26.578;2023-07-08T07:46:03;7.03;;;4.80;;
21233;SDS011;10774;42.178;26.578;2023-07-08T07:48:30;8.52;;;4.93;;
21233;SDS011;10774;42.178;26.578;2023-07-08T07:50:56;10.60;;;4.88;;
21233;SDS011;10774;42.178;26.578;2023-07-08T07:53:22;5.78;;;4.22;;
21233;SDS011;10774;42.178;26.578;2023-07-08T07:55:48;5.18;;;4.65;;
21233;SDS011;10774;42.178;26.578;2023-07-08T07:58:20;6.40;;;4.45;;
21233;SDS011;10774;42.178;26.578;2023-07-08T08:00:45;6.10;;;5.00;;
21233;SDS011;10774;42.178;26.578;2023-07-08T08:03:11;6.75;;;5.30;;
21233;SDS011;10774;42.178;26.578;2023-07-08T08:05:37;6.10;;;5.40;;
21233;SDS011;10774;42.178;26.578;2023-07-08T08:08:02;7.60;;;5.05;;
21233;SDS011;10774;42.178;26.578;2023-07-08T08:10:29;6.35;;;5.53;;
21233;SDS011;10774;42.178;26.578;2023-07-08T08:12:56;7.95;;;5.13;;
21233;SDS011;10774;42.178;26.578;2023-07-08T08:15:21;12.98;;;10.50;;
21233;SDS011;10774;42.178;26.578;2023-07-08T08:17:47;8.82;;;5.93;;
21233;SDS011;10774;42.178;26.578;2023-07-08T08:20:14;15.10;;;12.35;;
21233;SDS011;10774;42.178;26.578;2023-07-08T08:22:39;6.93;;;6.22;;
21233;SDS011;10774;42.178;26.578;2023-07-08T08:25:05;7.78;;;6.20;;
21233;SDS011;10774;42.178;26.578;2023-07-08T08:27:31;6.10;;;5.50;;
21233;SDS011;10774;42.178;26.578;2023-07-08T08:29:57;6.40;;;5.80;;
21233;SDS011;10774;42.178;26.578;2023-07-08T08:32:22;6.70;;;6.00;;
21233;SDS011;10774;42.178;26.578;2023-07-08T08:34:48;6.15;;;5.55;;
21233;SDS011;10774;42.178;26.578;2023-07-08T08:37:13;6.75;;;5.63;;
21233;SDS011;10774;42.178;26.578;2023-07-08T08:39:39;8.82;;;6.00;;
21233;SDS011;10774;42.178;26.578;2023-07-08T08:42:07;6.57;;;5.55;;
21233;SDS011;10774;42.178;26.578;2023-07-08T08:44:50;5.88;;;5.38;;
21233;SDS011;10774;42.178;26.578;2023-07-08T08:49:57;7.28;;;5.45;;
21233;SDS011;10774;42.178;26.578;2023-07-08T08:52:28;8.00;;;5.43;;
21233;SDS011;10774;42.178;26.578;2023-07-08T08:54:53;7.00;;;5.53;;
21233;SDS011;10774;42.178;26.578;2023-07-08T08:57:39;5.55;;;4.93;;
21233;SDS011;10774;42.178;26.578;2023-07-08T09:00:11;8.52;;;5.30;;
21233;SDS011;10774;42.178;26.578;2023-07-08T09:05:27;10.85;;;4.55;;
21233;SDS011;10774;42.178;26.578;2023-07-08T09:10:46;7.63;;;3.30;;
21233;SDS011;10774;42.178;26.578;2023-07-08T09:13:22;4.57;;;3.17;;
21233;SDS011;10774;42.178;26.578;2023-07-08T09:15:54;5.70;;;2.10;;
21233;SDS011;10774;42.178;26.578;2023-07-08T09:18:27;2.00;;;1.80;;
21233;SDS011;10774;42.178;26.578;2023-07-08T09:20:58;4.03;;;2.25;;
21233;SDS011;10774;42.178;26.578;2023-07-08T09:23:32;3.80;;;2.22;;
21233;SDS011;10774;42.178;26.578;2023-07-08T09:26:07;2.50;;;2.10;;
21233;SDS011;10774;42.178;26.578;2023-07-08T09:28:43;2.10;;;1.90;;
21233;SDS011;10774;42.178;26.578;2023-07-08T09:31:21;3.20;;;2.28;;
21233;SDS011;10774;42.178;26.578;2023-07-08T09:34:04;2.97;;;2.30;;
21233;SDS011;10774;42.178;26.578;2023-07-08T09:36:31;3.10;;;2.15;;
21233;SDS011;10774;42.178;26.578;2023-07-08T09:38:57;4.50;;;2.25;;
21233;SDS011;10774;42.178;26.578;2023-07-08T09:41:33;3.92;;;2.28;;
21233;SDS011;10774;42.178;26.578;2023-07-08T09:46:40;2.92;;;2.63;;
21233;SDS011;10774;42.178;26.578;2023-07-08T09:49:27;3.00;;;2.70;;
21233;SDS011;10774;42.178;26.578;2023-07-08T09:51:55;4.15;;;3.28;;
21233;SDS011;10774;42.178;26.578;2023-07-08T09:54:22;4.45;;;4.05;;
21233;SDS011;10774;42.178;26.578;2023-07-08T09:57:05;5.70;;;4.13;;
21233;SDS011;10774;42.178;26.578;2023-07-08T09:59:48;3.47;;;2.88;;
21233;SDS011;10774;42.178;26.578;2023-07-08T10:04:51;3.70;;;3.03;;
21233;SDS011;10774;42.178;26.578;2023-07-08T10:07:21;3.95;;;2.95;;
21233;SDS011;10774;42.178;26.578;2023-07-08T10:09:48;7.20;;;2.70;;
21233;SDS011;10774;42.178;26.578;2023-07-08T10:12:18;4.93;;;2.05;;
21233;SDS011;10774;42.178;26.578;2023-07-08T10:15:12;4.00;;;1.80;;
21233;SDS011;10774;42.178;26.578;2023-07-08T10:17:45;3.00;;;2.08;;
21233;SDS011;10774;42.178;26.578;2023-07-08T10:20:12;2.10;;;1.90;;
21233;SDS011;10774;42.178;26.578;2023-07-08T10:25:40;6.30;;;3.92;;
21233;SDS011;10774;42.178;26.578;2023-07-08T10:31:01;7.18;;;3.92;;
21233;SDS011;10774;42.178;26.578;2023-07-08T10:39:38;4.78;;;2.22;;
21233;SDS011;10774;42.178;26.578;2023-07-08T10:42:19;5.70;;;2.90;;
21233;SDS011;10774;42.178;26.578;2023-07-08T10:50:59;2.13;;;1.85;;
21233;SDS011;10774;42.178;26.578;2023-07-08T10:56:00;3.83;;;2.33;;
21233;SDS011;10774;42.178;26.578;2023-07-08T11:06:18;2.50;;;1.90;;
21233;SDS011;10774;42.178;26.578;2023-07-08T11:08:50;2.88;;;2.22;;
21233;SDS011;10774;42.178;26.578;2023-07-08T11:11:38;4.60;;;2.20;;
21233;SDS011;10774;42.178;26.578;2023-07-08T11:14:20;11.23;;;2.35;;
21233;SDS011;10774;42.178;26.578;2023-07-08T11:20:28;2.33;;;2.10;;
21233;SDS011;10774;42.178;26.578;2023-07-08T11:22:50;2.47;;;2.13;;
21233;SDS011;10774;42.178;26.578;2023-07-08T11:25:20;3.70;;;2.13;;
21233;SDS011;10774;42.178;26.578;2023-07-08T11:27:49;2.85;;;1.95;;
21233;SDS011;10774;42.178;26.578;2023-07-08T11:30:22;3.58;;;1.73;;
21233;SDS011;10774;42.178;26.578;2023-07-08T11:32:54;2.55;;;2.20;;
21233;SDS011;10774;42.178;26.578;2023-07-08T11:38:03;2.55;;;2.28;;
21233;SDS011;10774;42.178;26.578;2023-07-08T11:40:29;2.53;;;2.33;;
21233;SDS011;10774;42.178;26.578;2023-07-08T11:43:02;4.25;;;2.80;;
21233;SDS011;10774;42.178;26.578;2023-07-08T11:45:35;2.90;;;2.60;;
21233;SDS011;10774;42.178;26.578;2023-07-08T11:48:04;2.50;;;2.30;;
21233;SDS011;10774;42.178;26.578;2023-07-08T11:50:49;4.00;;;2.65;;
21233;SDS011;10774;42.178;26.578;2023-07-08T11:55:55;4.07;;;2.80;;
21233;SDS011;10774;42.178;26.578;2023-07-08T11:58:29;6.72;;;3.35;;
21233;SDS011;10774;42.178;26.578;2023-07-08T12:03:51;4.35;;;2.70;;
21233;SDS011;10774;42.178;26.578;2023-07-08T12:08:57;7.22;;;4.20;;
21233;SDS011;10774;42.178;26.578;2023-07-08T12:11:25;4.43;;;2.88;;
21233;SDS011;10774;42.178;26.578;2023-07-08T12:13:55;5.78;;;3.40;;
21233;SDS011;10774;42.178;26.578;2023-07-08T12:16:26;3.75;;;2.90;;
21233;SDS011;10774;42.178;26.578;2023-07-08T12:18:53;3.88;;;2.50;;
21233;SDS011;10774;42.178;26.578;2023-07-08T12:21:21;3.60;;;3.10;;
21233;SDS011;10774;42.178;26.578;2023-07-08T12:23:49;5.18;;;2.40;;
21233;SDS011;10774;42.178;26.578;2023-07-08T12:26:15;2.85;;;2.30;;
21233;SDS011;10774;42.178;26.578;2023-07-08T12:28:41;4.47;;;2.60;;
21233;SDS011;10774;42.178;26.578;2023-07-08T12:31:20;3.97;;;2.10;;
21233;SDS011;10774;42.178;26.578;2023-07-08T12:33:48;3.45;;;2.58;;
21233;SDS011;10774;42.178;26.578;2023-07-08T12:36:22;2.90;;;2.40;;
21233;SDS011;10774;42.178;26.578;2023-07-08T12:38:52;2.78;;;2.20;;
21233;SDS011;10774;42.178;26.578;2023-07-08T12:41:37;2.97;;;2.22;;
21233;SDS011;10774;42.178;26.578;2023-07-08T12:44:04;3.85;;;2.28;;
21233;SDS011;10774;42.178;26.578;2023-07-08T12:46:39;3.03;;;1.75;;
21233;SDS011;10774;42.178;26.578;2023-07-08T12:49:04;2.22;;;1.92;;
21233;SDS011;10774;42.178;26.578;2023-07-08T12:51:29;4.10;;;2.40;;
21233;SDS011;10774;42.178;26.578;2023-07-08T12:53:56;5.97;;;3.33;;
21233;SDS011;10774;42.178;26.578;2023-07-08T12:56:22;6.10;;;2.47;;
21233;SDS011;10774;42.178;26.578;2023-07-08T12:58:53;2.75;;;2.00;;
21233;SDS011;10774;42.178;26.578;2023-07-08T13:01:23;4.35;;;2.40;;
21233;SDS011;10774;42.178;26.578;2023-07-08T13:03:52;2.50;;;2.08;;
21233;SDS011;10774;42.178;26.578;2023-07-08T13:06:20;9.57;;;3.65;;
21233;SDS011;10774;42.178;26.578;2023-07-08T13:08:48;2.58;;;2.25;;
21233;SDS011;10774;42.178;26.578;2023-07-08T13:11:15;5.07;;;4.55;;
21233;SDS011;10774;42.178;26.578;2023-07-08T13:13:58;5.22;;;4.20;;
21233;SDS011;10774;42.178;26.578;2023-07-08T13:16:28;7.68;;;5.88;;
21233;SDS011;10774;42.178;26.578;2023-07-08T13:18:56;4.88;;;2.72;;
21233;SDS011;10774;42.178;26.578;2023-07-08T13:21:22;5.35;;;2.80;;
21233;SDS011;10774;42.178;26.578;2023-07-08T13:23:50;8.13;;;2.53;;
21233;SDS011;10774;42.178;26.578;2023-07-08T13:26:16;7.28;;;4.60;;
21233;SDS011;10774;42.178;26.578;2023-07-08T13:28:44;4.57;;;2.50;;
21233;SDS011;10774;42.178;26.578;2023-07-08T13:31:21;3.30;;;2.20;;
21233;SDS011;10774;42.178;26.578;2023-07-08T13:33:52;3.25;;;2.65;;
21233;SDS011;10774;42.178;26.578;2023-07-08T13:36:21;4.32;;;2.42;;
21233;SDS011;10774;42.178;26.578;2023-07-08T13:38:48;5.32;;;2.40;;
21233;SDS011;10774;42.178;26.578;2023-07-08T13:41:19;3.35;;;2.20;;
21233;SDS011;10774;42.178;26.578;2023-07-08T13:43:47;10.15;;;2.67;;
21233;SDS011;10774;42.178;26.578;2023-07-08T13:49:13;11.68;;;2.95;;
21233;SDS011;10774;42.178;26.578;2023-07-08T13:51:52;6.07;;;2.40;;
21233;SDS011;10774;42.178;26.578;2023-07-08T13:54:35;7.85;;;2.65;;
21233;SDS011;10774;42.178;26.578;2023-07-08T13:57:09;8.50;;;2.63;;
21233;SDS011;10774;42.178;26.578;2023-07-08T14:02:26;7.93;;;2.55;;
21233;SDS011;10774;42.178;26.578;2023-07-08T14:04:56;2.70;;;1.80;;
21233;SDS011;10774;42.178;26.578;2023-07-08T14:07:25;4.15;;;2.15;;
21233;SDS011;10774;42.178;26.578;2023-07-08T14:09:55;2.75;;;1.90;;
21233;SDS011;10774;42.178;26.578;2023-07-08T14:12:21;3.00;;;1.85;;
21233;SDS011;10774;42.178;26.578;2023-07-08T14:14:47;2.95;;;1.92;;
21233;SDS011;10774;42.178;26.578;2023-07-08T14:17:23;5.65;;;2.10;;
21233;SDS011;10774;42.178;26.578;2023-07-08T14:19:50;2.40;;;1.77;;
21233;SDS011;10774;42.178;26.578;2023-07-08T14:22:29;3.42;;;2.30;;
21233;SDS011;10774;42.178;26.578;2023-07-08T14:24:55;2.67;;;2.05;;
21233;SDS011;10774;42.178;26.578;2023-07-08T14:27:23;2.90;;;2.42;;
21233;SDS011;10774;42.178;26.578;2023-07-08T14:29:49;4.95;;;2.60;;
21233;SDS011;10774;42.178;26.578;2023-07-08T14:32:18;5.32;;;2.17;;
21233;SDS011;10774;42.178;26.578;2023-07-08T14:34:52;4.47;;;2.35;;
21233;SDS011;10774;42.178;26.578;2023-07-08T14:37:20;3.05;;;2.28;;
21233;SDS011;10774;42.178;26.578;2023-07-08T14:39:47;3.80;;;2.25;;
21233;SDS011;10774;42.178;26.578;2023-07-08T14:42:16;2.70;;;1.92;;
21233;SDS011;10774;42.178;26.578;2023-07-08T14:44:44;4.82;;;2.05;;
21233;SDS011;10774;42.178;26.578;2023-07-08T14:47:12;5.20;;;2.50;;
21233;SDS011;10774;42.178;26.578;2023-07-08T14:49:39;2.58;;;1.88;;
21233;SDS011;10774;42.178;26.578;2023-07-08T14:52:05;4.15;;;2.10;;
21233;SDS011;10774;42.178;26.578;2023-07-08T14:54:34;4.03;;;1.90;;
21233;SDS011;10774;42.178;26.578;2023-07-08T14:57:06;5.45;;;2.40;;
21233;SDS011;10774;42.178;26.578;2023-07-08T14:59:32;5.63;;;2.40;;
21233;SDS011;10774;42.178;26.578;2023-07-08T15:02:00;3.30;;;1.90;;
21233;SDS011;10774;42.178;26.578;2023-07-08T15:04:27;5.28;;;2.60;;
21233;SDS011;10774;42.178;26.578;2023-07-08T15:06:53;2.78;;;2.35;;
21233;SDS011;10774;42.178;26.578;2023-07-08T15:09:25;4.63;;;2.50;;
21233;SDS011;10774;42.178;26.578;2023-07-08T15:11:51;3.90;;;2.35;;
21233;SDS011;10774;42.178;26.578;2023-07-08T15:14:23;4.20;;;2.08;;
21233;SDS011;10774;42.178;26.578;2023-07-08T15:16:50;5.28;;;2.20;;
21233;SDS011;10774;42.178;26.578;2023-07-08T15:19:16;5.15;;;2.42;;
21233;SDS011;10774;42.178;26.578;2023-07-08T15:21:43;2.70;;;2.30;;
21233;SDS011;10774;42.178;26.578;2023-07-08T15:24:09;4.03;;;2.50;;
21233;SDS011;10774;42.178;26.578;2023-07-08T15:26:46;6.55;;;2.72;;
21233;SDS011;10774;42.178;26.578;2023-07-08T15:29:18;3.30;;;2.78;;
21233;SDS011;10774;42.178;26.578;2023-07-08T15:31:46;5.00;;;3.35;;
21233;SDS011;10774;42.178;26.578;2023-07-08T15:34:15;6.75;;;2.90;;
21233;SDS011;10774;42.178;26.578;2023-07-08T15:36:44;4.07;;;2.70;;
21233;SDS011;10774;42.178;26.578;2023-07-08T15:39:22;6.07;;;2.58;;
21233;SDS011;10774;42.178;26.578;2023-07-08T15:41:48;4.93;;;2.85;;
21233;SDS011;10774;42.178;26.578;2023-07-08T15:44:13;5.22;;;2.95;;